Jemez Springs, Valles Caldera, New Mexico Weather observations

Data are for 10 minute period ending at time listed.
 Day   Time   Solar   Ave.   Ave.  Ave.  Vector  Max.   Baro.   Total    
  of    of     Rad.   Air    Rel.  Wind   Wind   Wind  Press.  Precip.   
Year   Day            Temp.  Hum.  Speed  Dir.   Gust                    
2015   (MST)  Kw/m2    F      %     mph   deg.    mph    mb.     in.     
-------------------------------------------------------------------------
 184    0:00   100.00  99999.0   99999  99999.0   99999   99999.0   99999.0   99999.00 
 184    0:10   100.00  99999.0   99999  99999.0   99999   99999.0   99999.0   99999.00 
 184    0:20   100.00  99999.0   99999  99999.0   99999   99999.0   99999.0   99999.00 
 184    0:30   100.00  99999.0   99999  99999.0   99999   99999.0   99999.0   99999.00 
 184    0:40   100.00  99999.0   99999  99999.0   99999   99999.0   99999.0   99999.00 
 184    0:50   100.00  99999.0   99999  99999.0   99999   99999.0   99999.0   99999.00 
 184    1:00   100.00  99999.0   99999  99999.0   99999   99999.0   99999.0   99999.00 
 184    1:10   100.00  99999.0   99999  99999.0   99999   99999.0   99999.0   99999.00 
 184    1:20   100.00  99999.0   99999  99999.0   99999   99999.0   99999.0   99999.00 
 184    1:30   100.00  99999.0   99999  99999.0   99999   99999.0   99999.0   99999.00 
 184    1:40   100.00  99999.0   99999  99999.0   99999   99999.0   99999.0   99999.00 
 184    1:50   100.00  99999.0   99999  99999.0   99999   99999.0   99999.0   99999.00 
 184    2:00   100.00  99999.0   99999  99999.0   99999   99999.0   99999.0   99999.00 
 184    2:10   100.00  99999.0   99999  99999.0   99999   99999.0   99999.0   99999.00 
 184    2:20   100.00  99999.0   99999  99999.0   99999   99999.0   99999.0   99999.00 
 184    2:30   100.00  99999.0   99999  99999.0   99999   99999.0   99999.0   99999.00 
 184    2:40   100.00  99999.0   99999  99999.0   99999   99999.0   99999.0   99999.00 
 184    2:50   100.00  99999.0   99999  99999.0   99999   99999.0   99999.0   99999.00 
 184    3:00   100.00  99999.0   99999  99999.0   99999   99999.0   99999.0   99999.00 
 184    3:10   100.00  99999.0   99999  99999.0   99999   99999.0   99999.0   99999.00 
 184    3:20   100.00  99999.0   99999  99999.0   99999   99999.0   99999.0   99999.00 
 184    3:30   100.00  99999.0   99999  99999.0   99999   99999.0   99999.0   99999.00 
 184    3:40   100.00  99999.0   99999  99999.0   99999   99999.0   99999.0   99999.00 
 184    3:50   100.00  99999.0   99999  99999.0   99999   99999.0   99999.0   99999.00 
 184    4:00   100.00  99999.0   99999  99999.0   99999   99999.0   99999.0   99999.00 
 184    4:10   100.00  99999.0   99999  99999.0   99999   99999.0   99999.0   99999.00 
 184    4:20   100.00  99999.0   99999  99999.0   99999   99999.0   99999.0   99999.00 
 184    4:30   0.00   58.2    76    4.2   350     9.0   812.4    0.00 
 184    4:40   0.00   58.1    76    5.0   347     9.0   812.4    0.00 
 184    4:50   0.00   58.2    76    6.1     4    10.8   812.5    0.00 
 184    5:00   0.00   58.0    76    5.0     5     9.0   812.5    0.00 
 184    5:10   0.01   58.1    76    5.8     3     9.6   812.5    0.00 
 184    5:20   100.00  99999.0   99999  99999.0   99999   99999.0   99999.0   99999.00 
 184    5:30   0.02   58.1    75    4.8     0    10.8   812.6    0.00 
 184    5:40   0.03   58.1    75    6.0     0     9.6   812.7    0.00 
 184    5:50   0.04   58.3    75    3.5     2     7.8   812.8    0.00 
 184    6:00   0.04   58.3    75    3.6   344     7.2   812.8    0.00 
 184    6:10   0.04   58.6    74    4.1   352     7.2   812.9    0.00 
 184    6:20   0.06   59.0    74    4.5     6     9.0   812.9    0.00 
 184    6:30   0.18   59.9    72    5.1    16     9.0   812.9    0.00 
 184    6:40   0.20   61.4    69    5.2    10     9.6   813.0    0.00 
 184    6:50   0.26   62.7    66    5.9     5     9.6   812.9    0.00 
 184    7:00   0.24   63.8    64    4.6     0     9.0   812.9    0.00 
 184    7:10   0.33   64.9    62    4.8   354     9.6   812.9    0.00 
 184    7:20   0.42   67.1    58    4.6     8     9.0   812.9    0.00 
 184    7:30   0.40   67.6    59    4.4    13     7.8   812.9    0.00 
 184    7:40   0.47   68.4    56    5.2    21     8.4   812.9    0.00 
 184    7:50   0.48   70.0    55    3.4    26     5.4   812.7    0.00 
 184    8:00   0.59   71.6    51    2.2    59     4.2   812.5    0.00 
 184    8:10   0.55   73.3    49    2.2   124     4.2   812.5    0.00 
 184    8:20   0.65   73.5    48    2.8   153     6.0   812.5    0.00 
 184    8:30   0.68   73.8    48    4.7   144     6.6   812.5    0.00 
 184    8:40   0.72   74.9    46    4.5   154     7.8   812.5    0.00 
 184    8:50   0.76   75.2    45    7.2   167    11.9   812.5    0.00 
 184    9:00   0.71   75.2    45    6.4   173    12.5   812.5    0.00 
 184    9:10   0.76   75.3    45    7.0   187    13.7   812.6    0.00 
 184    9:20   0.62   75.3    45    6.9   177    11.3   812.6    0.00 
 184    9:30   0.69   74.8    47    6.5   183    13.1   812.6    0.00 
 184    9:40   0.82   75.6    46    6.7   169    11.3   812.6    0.00 
 184    9:50   0.66   75.7    46    6.7   199    15.5   812.6    0.00 
 184   10:00   0.59   76.0    46    5.5   167    12.5   812.7    0.00 
 184   10:10   0.76   76.4    46    4.6   181     9.6   812.7    0.00 
 184   10:20   0.67   76.8    45    5.8   158    14.3   812.6    0.00 
 184   10:30   0.98   76.9    46    5.1   167    10.8   812.6    0.00 
 184   10:40   0.75   77.6    46    5.6   201    12.5   812.6    0.00 
 184   10:50   0.78   78.0    45    5.8   177    11.9   812.6    0.00 
 184   11:00   0.57   76.4    48    7.3   174    13.7   812.6    0.00 
 184   11:10   0.56   76.0    49    8.1   175    13.1   812.6    0.00 
 184   11:20   0.57   75.4    49    8.6   174    13.1   812.6    0.00 

Return to Jemez Springs, Valles Caldera graphs page.


Western Regional Climate Center,wrcc@dri.edu